sensor_id;sensor_type;location;lat;lon;timestamp;temperature;humidity
9847;DHT22;68671;50.084;8.794;2023-04-16T00:01:23;12.40;99.90
9847;DHT22;68671;50.084;8.794;2023-04-16T00:03:50;12.40;99.90
9847;DHT22;68671;50.084;8.794;2023-04-16T00:06:19;12.40;99.90
9847;DHT22;68671;50.084;8.794;2023-04-16T00:08:49;12.50;99.90
9847;DHT22;68671;50.084;8.794;2023-04-16T00:11:16;12.40;99.90
9847;DHT22;68671;50.084;8.794;2023-04-16T00:13:43;12.40;99.90
9847;DHT22;68671;50.084;8.794;2023-04-16T00:16:10;12.40;99.90
9847;DHT22;68671;50.084;8.794;2023-04-16T00:18:36;12.50;99.90
9847;DHT22;68671;50.084;8.794;2023-04-16T00:21:03;12.40;99.90
9847;DHT22;68671;50.084;8.794;2023-04-16T00:23:32;12.50;99.90
9847;DHT22;68671;50.084;8.794;2023-04-16T00:25:59;12.50;99.90
9847;DHT22;68671;50.084;8.794;2023-04-16T00:28:26;12.50;99.90
9847;DHT22;68671;50.084;8.794;2023-04-16T00:30:53;12.50;99.90
9847;DHT22;68671;50.084;8.794;2023-04-16T00:33:21;12.50;99.90
9847;DHT22;68671;50.084;8.794;2023-04-16T00:35:48;12.50;99.90
9847;DHT22;68671;50.084;8.794;2023-04-16T00:38:14;12.50;99.90
9847;DHT22;68671;50.084;8.794;2023-04-16T00:40:43;12.50;99.90
9847;DHT22;68671;50.084;8.794;2023-04-16T00:43:10;12.40;99.90
9847;DHT22;68671;50.084;8.794;2023-04-16T00:45:37;12.50;99.90
9847;DHT22;68671;50.084;8.794;2023-04-16T00:48:05;12.50;99.90
9847;DHT22;68671;50.084;8.794;2023-04-16T00:50:32;12.50;99.90
9847;DHT22;68671;50.084;8.794;2023-04-16T00:52:59;12.50;99.90
9847;DHT22;68671;50.084;8.794;2023-04-16T00:55:27;12.50;99.90
9847;DHT22;68671;50.084;8.794;2023-04-16T00:57:56;12.50;99.90
9847;DHT22;68671;50.084;8.794;2023-04-16T01:00:23;12.50;99.90
9847;DHT22;68671;50.084;8.794;2023-04-16T01:02:51;12.50;99.90
9847;DHT22;68671;50.084;8.794;2023-04-16T01:05:18;12.50;99.90
9847;DHT22;68671;50.084;8.794;2023-04-16T01:07:45;12.50;99.90
9847;DHT22;68671;50.084;8.794;2023-04-16T01:10:12;12.50;99.90
9847;DHT22;68671;50.084;8.794;2023-04-16T01:12:39;12.50;99.90
9847;DHT22;68671;50.084;8.794;2023-04-16T01:15:08;12.50;99.90
9847;DHT22;68671;50.084;8.794;2023-04-16T01:17:35;12.50;99.90
9847;DHT22;68671;50.084;8.794;2023-04-16T01:20:03;12.50;99.90
9847;DHT22;68671;50.084;8.794;2023-04-16T01:22:31;12.40;99.90
9847;DHT22;68671;50.084;8.794;2023-04-16T01:24:58;12.40;99.90
9847;DHT22;68671;50.084;8.794;2023-04-16T01:27:25;12.50;99.90
9847;DHT22;68671;50.084;8.794;2023-04-16T01:29:52;12.50;99.90
9847;DHT22;68671;50.084;8.794;2023-04-16T01:32:20;12.50;99.90
9847;DHT22;68671;50.084;8.794;2023-04-16T01:34:47;12.50;99.90
9847;DHT22;68671;50.084;8.794;2023-04-16T01:37:14;12.50;99.90
9847;DHT22;68671;50.084;8.794;2023-04-16T01:39:42;12.50;99.90
9847;DHT22;68671;50.084;8.794;2023-04-16T01:42:09;12.50;99.90
9847;DHT22;68671;50.084;8.794;2023-04-16T01:44:36;12.40;99.90
9847;DHT22;68671;50.084;8.794;2023-04-16T01:47:03;12.40;99.90
9847;DHT22;68671;50.084;8.794;2023-04-16T01:49:30;12.40;99.90
9847;DHT22;68671;50.084;8.794;2023-04-16T01:51:58;12.40;99.90
9847;DHT22;68671;50.084;8.794;2023-04-16T01:54:25;12.40;99.90
9847;DHT22;68671;50.084;8.794;2023-04-16T01:56:53;12.30;99.90
9847;DHT22;68671;50.084;8.794;2023-04-16T01:59:20;12.40;99.90
9847;DHT22;68671;50.084;8.794;2023-04-16T02:01:47;12.40;99.90
9847;DHT22;68671;50.084;8.794;2023-04-16T02:04:14;12.40;99.90
9847;DHT22;68671;50.084;8.794;2023-04-16T02:06:41;12.40;99.90
9847;DHT22;68671;50.084;8.794;2023-04-16T02:09:08;12.40;99.90
9847;DHT22;68671;50.084;8.794;2023-04-16T02:11:34;12.40;99.90
9847;DHT22;68671;50.084;8.794;2023-04-16T02:14:03;12.40;99.90
9847;DHT22;68671;50.084;8.794;2023-04-16T02:16:30;12.40;99.90
9847;DHT22;68671;50.084;8.794;2023-04-16T02:18:57;12.40;99.90
9847;DHT22;68671;50.084;8.794;2023-04-16T02:21:23;12.40;99.90
9847;DHT22;68671;50.084;8.794;2023-04-16T02:23:51;12.40;99.90
9847;DHT22;68671;50.084;8.794;2023-04-16T02:26:18;12.40;99.90
9847;DHT22;68671;50.084;8.794;2023-04-16T02:28:45;12.40;99.90
9847;DHT22;68671;50.084;8.794;2023-04-16T02:31:14;12.40;99.90
9847;DHT22;68671;50.084;8.794;2023-04-16T02:33:43;12.40;99.90
9847;DHT22;68671;50.084;8.794;2023-04-16T02:36:10;12.40;99.90
9847;DHT22;68671;50.084;8.794;2023-04-16T02:38:37;12.40;99.90
9847;DHT22;68671;50.084;8.794;2023-04-16T02:41:04;12.40;99.90
9847;DHT22;68671;50.084;8.794;2023-04-16T02:43:31;12.40;99.90
9847;DHT22;68671;50.084;8.794;2023-04-16T02:45:58;12.40;99.90
9847;DHT22;68671;50.084;8.794;2023-04-16T02:48:26;12.40;99.90
9847;DHT22;68671;50.084;8.794;2023-04-16T02:50:53;12.50;99.90
9847;DHT22;68671;50.084;8.794;2023-04-16T02:53:20;12.40;99.90
9847;DHT22;68671;50.084;8.794;2023-04-16T02:55:49;12.50;99.90
9847;DHT22;68671;50.084;8.794;2023-04-16T02:58:18;12.50;99.90
9847;DHT22;68671;50.084;8.794;2023-04-16T03:00:45;12.50;99.90
9847;DHT22;68671;50.084;8.794;2023-04-16T03:03:12;12.50;99.90
9847;DHT22;68671;50.084;8.794;2023-04-16T03:05:40;12.50;99.90
9847;DHT22;68671;50.084;8.794;2023-04-16T03:08:07;12.50;99.90
9847;DHT22;68671;50.084;8.794;2023-04-16T03:10:34;12.60;99.90
9847;DHT22;68671;50.084;8.794;2023-04-16T03:13:01;12.50;99.90
9847;DHT22;68671;50.084;8.794;2023-04-16T03:15:29;12.50;99.90
9847;DHT22;68671;50.084;8.794;2023-04-16T03:17:56;12.50;99.90
9847;DHT22;68671;50.084;8.794;2023-04-16T03:20:23;12.60;99.90
9847;DHT22;68671;50.084;8.794;2023-04-16T03:22:51;12.50;99.90
9847;DHT22;68671;50.084;8.794;2023-04-16T03:25:19;12.50;99.90
9847;DHT22;68671;50.084;8.794;2023-04-16T03:27:46;12.50;99.90
9847;DHT22;68671;50.084;8.794;2023-04-16T03:30:13;12.60;99.90
9847;DHT22;68671;50.084;8.794;2023-04-16T03:32:41;12.50;99.90
9847;DHT22;68671;50.084;8.794;2023-04-16T03:35:08;12.50;99.90
9847;DHT22;68671;50.084;8.794;2023-04-16T03:37:35;12.50;99.90
9847;DHT22;68671;50.084;8.794;2023-04-16T03:40:04;12.50;99.90
9847;DHT22;68671;50.084;8.794;2023-04-16T03:42:32;12.50;99.90
9847;DHT22;68671;50.084;8.794;2023-04-16T03:44:59;12.50;99.90
9847;DHT22;68671;50.084;8.794;2023-04-16T03:47:26;12.50;99.90
9847;DHT22;68671;50.084;8.794;2023-04-16T03:49:53;12.50;99.90
9847;DHT22;68671;50.084;8.794;2023-04-16T03:52:20;12.50;99.90
9847;DHT22;68671;50.084;8.794;2023-04-16T03:54:47;12.50;99.90
9847;DHT22;68671;50.084;8.794;2023-04-16T03:57:15;12.40;99.90
9847;DHT22;68671;50.084;8.794;2023-04-16T03:59:42;12.50;99.90
9847;DHT22;68671;50.084;8.794;2023-04-16T04:02:09;12.50;99.90
9847;DHT22;68671;50.084;8.794;2023-04-16T04:04:36;12.40;99.90
9847;DHT22;68671;50.084;8.794;2023-04-16T04:07:03;12.50;99.90
9847;DHT22;68671;50.084;8.794;2023-04-16T04:09:30;12.50;99.90
9847;DHT22;68671;50.084;8.794;2023-04-16T04:11:58;12.50;99.90
9847;DHT22;68671;50.084;8.794;2023-04-16T04:14:26;12.50;99.90
9847;DHT22;68671;50.084;8.794;2023-04-16T04:16:53;12.50;99.90
9847;DHT22;68671;50.084;8.794;2023-04-16T04:19:20;12.60;99.90
9847;DHT22;68671;50.084;8.794;2023-04-16T04:21:47;12.60;99.90
9847;DHT22;68671;50.084;8.794;2023-04-16T04:24:14;12.50;99.90
9847;DHT22;68671;50.084;8.794;2023-04-16T04:26:41;12.50;99.90
9847;DHT22;68671;50.084;8.794;2023-04-16T04:29:08;12.50;99.90
9847;DHT22;68671;50.084;8.794;2023-04-16T04:31:36;12.50;99.90
9847;DHT22;68671;50.084;8.794;2023-04-16T04:34:03;12.50;99.90
9847;DHT22;68671;50.084;8.794;2023-04-16T04:36:30;12.50;99.90
9847;DHT22;68671;50.084;8.794;2023-04-16T04:38:58;12.60;99.90
9847;DHT22;68671;50.084;8.794;2023-04-16T04:41:25;12.60;99.90
9847;DHT22;68671;50.084;8.794;2023-04-16T04:43:52;12.60;99.90
9847;DHT22;68671;50.084;8.794;2023-04-16T04:46:19;12.60;99.90
9847;DHT22;68671;50.084;8.794;2023-04-16T04:48:47;12.60;99.90
9847;DHT22;68671;50.084;8.794;2023-04-16T04:51:14;12.60;99.90
9847;DHT22;68671;50.084;8.794;2023-04-16T04:53:41;12.60;99.90
9847;DHT22;68671;50.084;8.794;2023-04-16T04:56:08;12.60;99.90
9847;DHT22;68671;50.084;8.794;2023-04-16T04:58:36;12.70;99.90
9847;DHT22;68671;50.084;8.794;2023-04-16T05:01:03;12.60;99.90
9847;DHT22;68671;50.084;8.794;2023-04-16T05:03:30;12.70;99.90
9847;DHT22;68671;50.084;8.794;2023-04-16T05:05:58;12.70;99.90
9847;DHT22;68671;50.084;8.794;2023-04-16T05:08:26;12.70;99.90
9847;DHT22;68671;50.084;8.794;2023-04-16T05:10:53;12.70;99.90
9847;DHT22;68671;50.084;8.794;2023-04-16T05:13:20;12.70;99.90
9847;DHT22;68671;50.084;8.794;2023-04-16T05:15:47;12.70;99.90
9847;DHT22;68671;50.084;8.794;2023-04-16T05:18:14;12.70;99.90
9847;DHT22;68671;50.084;8.794;2023-04-16T05:20:41;12.70;99.90
9847;DHT22;68671;50.084;8.794;2023-04-16T05:23:09;12.70;99.90
9847;DHT22;68671;50.084;8.794;2023-04-16T05:25:36;12.80;99.90
9847;DHT22;68671;50.084;8.794;2023-04-16T05:28:04;12.80;99.90
9847;DHT22;68671;50.084;8.794;2023-04-16T05:30:31;12.80;99.90
9847;DHT22;68671;50.084;8.794;2023-04-16T05:32:58;12.80;99.90
9847;DHT22;68671;50.084;8.794;2023-04-16T05:35:25;12.80;99.90
9847;DHT22;68671;50.084;8.794;2023-04-16T05:37:52;12.70;99.90
9847;DHT22;68671;50.084;8.794;2023-04-16T05:40:35;12.70;99.90
9847;DHT22;68671;50.084;8.794;2023-04-16T05:43:03;12.70;99.90
9847;DHT22;68671;50.084;8.794;2023-04-16T05:45:30;12.70;99.90
9847;DHT22;68671;50.084;8.794;2023-04-16T05:47:57;12.70;99.90
9847;DHT22;68671;50.084;8.794;2023-04-16T05:50:24;12.70;99.90
9847;DHT22;68671;50.084;8.794;2023-04-16T05:52:51;12.70;99.90
9847;DHT22;68671;50.084;8.794;2023-04-16T05:55:18;12.70;99.90
9847;DHT22;68671;50.084;8.794;2023-04-16T05:57:47;12.70;99.90
9847;DHT22;68671;50.084;8.794;2023-04-16T06:00:14;12.70;99.90
9847;DHT22;68671;50.084;8.794;2023-04-16T06:02:41;12.70;99.90
9847;DHT22;68671;50.084;8.794;2023-04-16T06:05:08;12.70;99.90
9847;DHT22;68671;50.084;8.794;2023-04-16T06:07:35;12.80;99.90
9847;DHT22;68671;50.084;8.794;2023-04-16T06:10:02;12.70;99.90
9847;DHT22;68671;50.084;8.794;2023-04-16T06:12:29;12.70;99.90
9847;DHT22;68671;50.084;8.794;2023-04-16T06:14:58;12.80;99.90
9847;DHT22;68671;50.084;8.794;2023-04-16T06:17:25;12.80;99.90
9847;DHT22;68671;50.084;8.794;2023-04-16T06:19:52;12.90;99.90
9847;DHT22;68671;50.084;8.794;2023-04-16T06:22:19;12.80;99.90
9847;DHT22;68671;50.084;8.794;2023-04-16T06:24:46;12.90;99.90
9847;DHT22;68671;50.084;8.794;2023-04-16T06:27:13;12.80;99.90
9847;DHT22;68671;50.084;8.794;2023-04-16T06:29:40;12.80;99.90
9847;DHT22;68671;50.084;8.794;2023-04-16T06:32:09;12.80;99.90
9847;DHT22;68671;50.084;8.794;2023-04-16T06:34:36;12.80;99.90
9847;DHT22;68671;50.084;8.794;2023-04-16T06:37:03;12.90;99.90
9847;DHT22;68671;50.084;8.794;2023-04-16T06:39:31;12.80;99.90
9847;DHT22;68671;50.084;8.794;2023-04-16T06:41:58;12.90;99.90
9847;DHT22;68671;50.084;8.794;2023-04-16T06:44:25;13.00;99.90
9847;DHT22;68671;50.084;8.794;2023-04-16T06:46:52;12.90;99.90
9847;DHT22;68671;50.084;8.794;2023-04-16T06:49:21;12.90;99.90
9847;DHT22;68671;50.084;8.794;2023-04-16T06:51:48;12.90;99.90
9847;DHT22;68671;50.084;8.794;2023-04-16T06:54:15;13.00;99.90
9847;DHT22;68671;50.084;8.794;2023-04-16T06:56:43;12.90;99.90
9847;DHT22;68671;50.084;8.794;2023-04-16T06:59:10;12.90;99.90
9847;DHT22;68671;50.084;8.794;2023-04-16T07:01:37;12.90;99.90
9847;DHT22;68671;50.084;8.794;2023-04-16T07:04:04;12.90;99.90
9847;DHT22;68671;50.084;8.794;2023-04-16T07:06:33;12.90;99.90
9847;DHT22;68671;50.084;8.794;2023-04-16T07:09:00;13.10;99.90
9847;DHT22;68671;50.084;8.794;2023-04-16T07:11:27;13.10;99.90
9847;DHT22;68671;50.084;8.794;2023-04-16T07:13:54;13.20;99.90
9847;DHT22;68671;50.084;8.794;2023-04-16T07:16:22;13.20;99.90
9847;DHT22;68671;50.084;8.794;2023-04-16T07:18:49;13.20;99.90
9847;DHT22;68671;50.084;8.794;2023-04-16T07:21:15;13.20;99.90
9847;DHT22;68671;50.084;8.794;2023-04-16T07:23:44;13.20;99.90
9847;DHT22;68671;50.084;8.794;2023-04-16T07:26:11;13.20;99.90
9847;DHT22;68671;50.084;8.794;2023-04-16T07:28:38;13.20;99.90
9847;DHT22;68671;50.084;8.794;2023-04-16T07:31:05;13.30;99.90
9847;DHT22;68671;50.084;8.794;2023-04-16T07:33:32;13.30;99.90
9847;DHT22;68671;50.084;8.794;2023-04-16T07:35:59;13.40;99.90
9847;DHT22;68671;50.084;8.794;2023-04-16T07:38:26;13.40;99.90
9847;DHT22;68671;50.084;8.794;2023-04-16T07:40:55;13.40;99.90
9847;DHT22;68671;50.084;8.794;2023-04-16T07:43:22;13.50;99.90
9847;DHT22;68671;50.084;8.794;2023-04-16T07:45:49;13.50;99.90
9847;DHT22;68671;50.084;8.794;2023-04-16T07:48:16;13.50;99.90
9847;DHT22;68671;50.084;8.794;2023-04-16T07:50:43;13.50;99.90
9847;DHT22;68671;50.084;8.794;2023-04-16T07:53:10;13.50;99.90
9847;DHT22;68671;50.084;8.794;2023-04-16T07:55:37;13.60;99.90
9847;DHT22;68671;50.084;8.794;2023-04-16T07:58:05;13.60;99.90
9847;DHT22;68671;50.084;8.794;2023-04-16T08:00:34;13.60;99.90
9847;DHT22;68671;50.084;8.794;2023-04-16T08:03:01;13.60;99.90
9847;DHT22;68671;50.084;8.794;2023-04-16T08:05:27;13.60;99.90
9847;DHT22;68671;50.084;8.794;2023-04-16T08:07:55;13.70;99.90
9847;DHT22;68671;50.084;8.794;2023-04-16T08:10:21;13.70;99.90
9847;DHT22;68671;50.084;8.794;2023-04-16T08:12:48;13.80;99.90
9847;DHT22;68671;50.084;8.794;2023-04-16T08:15:17;13.80;99.90
9847;DHT22;68671;50.084;8.794;2023-04-16T08:17:44;13.90;99.90
9847;DHT22;68671;50.084;8.794;2023-04-16T08:20:11;13.90;99.90
9847;DHT22;68671;50.084;8.794;2023-04-16T08:22:38;14.00;99.90
9847;DHT22;68671;50.084;8.794;2023-04-16T08:25:06;14.10;99.90
9847;DHT22;68671;50.084;8.794;2023-04-16T08:27:33;14.20;99.90
9847;DHT22;68671;50.084;8.794;2023-04-16T08:30:00;14.30;99.90
9847;DHT22;68671;50.084;8.794;2023-04-16T08:32:28;14.20;99.90
9847;DHT22;68671;50.084;8.794;2023-04-16T08:34:55;14.30;99.90
9847;DHT22;68671;50.084;8.794;2023-04-16T08:37:22;14.30;99.90
9847;DHT22;68671;50.084;8.794;2023-04-16T08:39:49;14.40;99.90
9847;DHT22;68671;50.084;8.794;2023-04-16T08:42:22;14.40;99.90
9847;DHT22;68671;50.084;8.794;2023-04-16T08:44:52;14.40;99.90
9847;DHT22;68671;50.084;8.794;2023-04-16T08:47:24;14.40;99.90
9847;DHT22;68671;50.084;8.794;2023-04-16T08:49:55;14.40;99.90
9847;DHT22;68671;50.084;8.794;2023-04-16T08:52:25;14.40;99.90
9847;DHT22;68671;50.084;8.794;2023-04-16T08:54:57;14.40;99.90
9847;DHT22;68671;50.084;8.794;2023-04-16T08:57:36;14.50;99.90
9847;DHT22;68671;50.084;8.794;2023-04-16T09:00:06;14.50;99.90
9847;DHT22;68671;50.084;8.794;2023-04-16T09:02:33;14.50;99.90
9847;DHT22;68671;50.084;8.794;2023-04-16T09:05:04;14.60;99.90
9847;DHT22;68671;50.084;8.794;2023-04-16T09:07:32;14.60;99.90
9847;DHT22;68671;50.084;8.794;2023-04-16T09:09:59;14.60;99.90
9847;DHT22;68671;50.084;8.794;2023-04-16T09:12:27;14.60;99.90
9847;DHT22;68671;50.084;8.794;2023-04-16T09:14:55;14.60;99.90
9847;DHT22;68671;50.084;8.794;2023-04-16T09:17:24;14.60;99.90
9847;DHT22;68671;50.084;8.794;2023-04-16T09:19:51;14.70;99.90
9847;DHT22;68671;50.084;8.794;2023-04-16T09:22:20;14.60;99.90
9847;DHT22;68671;50.084;8.794;2023-04-16T09:24:47;14.70;99.90
9847;DHT22;68671;50.084;8.794;2023-04-16T09:27:14;14.70;99.90
9847;DHT22;68671;50.084;8.794;2023-04-16T09:29:41;14.70;99.90
9847;DHT22;68671;50.084;8.794;2023-04-16T09:32:10;14.70;99.90
9847;DHT22;68671;50.084;8.794;2023-04-16T09:34:53;14.70;99.90
9847;DHT22;68671;50.084;8.794;2023-04-16T09:37:22;14.70;99.90
9847;DHT22;68671;50.084;8.794;2023-04-16T09:39:53;14.70;99.90
9847;DHT22;68671;50.084;8.794;2023-04-16T09:42:22;14.70;99.90
9847;DHT22;68671;50.084;8.794;2023-04-16T09:44:49;14.70;99.90
9847;DHT22;68671;50.084;8.794;2023-04-16T09:47:17;14.60;99.90
9847;DHT22;68671;50.084;8.794;2023-04-16T09:49:44;14.70;99.90
9847;DHT22;68671;50.084;8.794;2023-04-16T09:52:15;14.60;99.90
9847;DHT22;68671;50.084;8.794;2023-04-16T09:54:48;14.80;99.90
9847;DHT22;68671;50.084;8.794;2023-04-16T09:57:18;14.90;99.90
9847;DHT22;68671;50.084;8.794;2023-04-16T09:59:46;15.00;99.90
9847;DHT22;68671;50.084;8.794;2023-04-16T10:02:13;15.00;99.90
9847;DHT22;68671;50.084;8.794;2023-04-16T10:04:47;15.00;99.90
9847;DHT22;68671;50.084;8.794;2023-04-16T10:07:15;15.00;99.90
9847;DHT22;68671;50.084;8.794;2023-04-16T10:09:42;15.00;99.90
9847;DHT22;68671;50.084;8.794;2023-04-16T10:12:11;15.00;99.90
9847;DHT22;68671;50.084;8.794;2023-04-16T10:14:38;15.10;99.90
9847;DHT22;68671;50.084;8.794;2023-04-16T10:17:05;15.10;99.90
9847;DHT22;68671;50.084;8.794;2023-04-16T10:19:33;15.10;99.90
9847;DHT22;68671;50.084;8.794;2023-04-16T10:22:00;15.20;99.90
9847;DHT22;68671;50.084;8.794;2023-04-16T10:24:28;15.30;99.90
9847;DHT22;68671;50.084;8.794;2023-04-16T10:26:56;15.40;99.90
9847;DHT22;68671;50.084;8.794;2023-04-16T10:29:25;15.50;99.90
9847;DHT22;68671;50.084;8.794;2023-04-16T10:31:54;15.60;99.90
9847;DHT22;68671;50.084;8.794;2023-04-16T10:34:22;15.70;99.90
9847;DHT22;68671;50.084;8.794;2023-04-16T10:36:51;15.70;99.90
9847;DHT22;68671;50.084;8.794;2023-04-16T10:39:20;15.70;99.90
9847;DHT22;68671;50.084;8.794;2023-04-16T10:41:48;15.70;99.90
9847;DHT22;68671;50.084;8.794;2023-04-16T10:44:17;15.70;99.90
9847;DHT22;68671;50.084;8.794;2023-04-16T10:46:46;15.70;99.90
9847;DHT22;68671;50.084;8.794;2023-04-16T10:49:16;15.80;99.90
9847;DHT22;68671;50.084;8.794;2023-04-16T10:51:52;15.90;99.90
9847;DHT22;68671;50.084;8.794;2023-04-16T10:54:22;16.00;99.90
9847;DHT22;68671;50.084;8.794;2023-04-16T10:56:49;16.10;99.90
9847;DHT22;68671;50.084;8.794;2023-04-16T10:59:18;16.30;99.90
9847;DHT22;68671;50.084;8.794;2023-04-16T11:01:49;16.30;99.90
9847;DHT22;68671;50.084;8.794;2023-04-16T11:04:32;16.30;99.90
9847;DHT22;68671;50.084;8.794;2023-04-16T11:07:15;16.30;99.90
9847;DHT22;68671;50.084;8.794;2023-04-16T11:09:50;16.30;99.90
9847;DHT22;68671;50.084;8.794;2023-04-16T11:12:24;16.20;99.90
9847;DHT22;68671;50.084;8.794;2023-04-16T11:14:53;16.20;99.90
9847;DHT22;68671;50.084;8.794;2023-04-16T11:17:21;16.30;99.90
9847;DHT22;68671;50.084;8.794;2023-04-16T11:19:48;16.40;99.90
9847;DHT22;68671;50.084;8.794;2023-04-16T11:22:16;16.60;99.90
9847;DHT22;68671;50.084;8.794;2023-04-16T11:24:44;16.80;99.90
9847;DHT22;68671;50.084;8.794;2023-04-16T11:27:12;17.00;99.90
9847;DHT22;68671;50.084;8.794;2023-04-16T11:29:39;17.10;99.90
9847;DHT22;68671;50.084;8.794;2023-04-16T11:32:07;17.10;99.90
9847;DHT22;68671;50.084;8.794;2023-04-16T11:34:42;17.10;99.90
9847;DHT22;68671;50.084;8.794;2023-04-16T11:37:10;17.20;99.90
9847;DHT22;68671;50.084;8.794;2023-04-16T11:39:47;17.30;99.90
9847;DHT22;68671;50.084;8.794;2023-04-16T11:42:18;17.10;99.90
9847;DHT22;68671;50.084;8.794;2023-04-16T11:44:45;17.00;99.90
9847;DHT22;68671;50.084;8.794;2023-04-16T11:47:12;16.90;99.90
9847;DHT22;68671;50.084;8.794;2023-04-16T11:49:44;17.00;99.90
9847;DHT22;68671;50.084;8.794;2023-04-16T11:52:12;17.10;99.90
9847;DHT22;68671;50.084;8.794;2023-04-16T11:54:39;17.20;99.90
9847;DHT22;68671;50.084;8.794;2023-04-16T11:57:06;17.30;99.90
9847;DHT22;68671;50.084;8.794;2023-04-16T11:59:33;17.30;99.90
9847;DHT22;68671;50.084;8.794;2023-04-16T12:02:01;17.20;99.90
9847;DHT22;68671;50.084;8.794;2023-04-16T12:04:28;17.10;99.90
9847;DHT22;68671;50.084;8.794;2023-04-16T12:07:07;16.90;99.90
9847;DHT22;68671;50.084;8.794;2023-04-16T12:09:35;16.70;99.90
9847;DHT22;68671;50.084;8.794;2023-04-16T12:12:03;16.50;99.90
9847;DHT22;68671;50.084;8.794;2023-04-16T12:14:30;16.40;99.90
9847;DHT22;68671;50.084;8.794;2023-04-16T12:17:16;16.40;99.90
9847;DHT22;68671;50.084;8.794;2023-04-16T12:19:50;16.40;99.90
9847;DHT22;68671;50.084;8.794;2023-04-16T12:22:26;16.40;99.90
9847;DHT22;68671;50.084;8.794;2023-04-16T12:24:55;16.50;99.90
9847;DHT22;68671;50.084;8.794;2023-04-16T12:27:23;16.40;99.90
9847;DHT22;68671;50.084;8.794;2023-04-16T12:30:05;16.40;99.90
9847;DHT22;68671;50.084;8.794;2023-04-16T12:32:32;16.40;99.90
9847;DHT22;68671;50.084;8.794;2023-04-16T12:34:59;16.50;99.90
9847;DHT22;68671;50.084;8.794;2023-04-16T12:37:28;16.50;99.90
9847;DHT22;68671;50.084;8.794;2023-04-16T12:39:58;16.70;99.90
9847;DHT22;68671;50.084;8.794;2023-04-16T12:42:25;16.80;99.90
9847;DHT22;68671;50.084;8.794;2023-04-16T12:44:52;16.80;99.90
9847;DHT22;68671;50.084;8.794;2023-04-16T12:47:19;16.90;99.90
9847;DHT22;68671;50.084;8.794;2023-04-16T12:49:46;16.90;99.90
9847;DHT22;68671;50.084;8.794;2023-04-16T12:52:13;17.00;99.90
9847;DHT22;68671;50.084;8.794;2023-04-16T12:54:41;17.00;99.90
9847;DHT22;68671;50.084;8.794;2023-04-16T12:57:08;17.10;99.90
9847;DHT22;68671;50.084;8.794;2023-04-16T12:59:36;17.10;99.90
9847;DHT22;68671;50.084;8.794;2023-04-16T13:02:03;17.10;99.90
9847;DHT22;68671;50.084;8.794;2023-04-16T13:04:30;17.10;99.90
9847;DHT22;68671;50.084;8.794;2023-04-16T13:06:57;17.00;99.90
9847;DHT22;68671;50.084;8.794;2023-04-16T13:09:24;17.20;99.90
9847;DHT22;68671;50.084;8.794;2023-04-16T13:11:53;17.20;99.90
9847;DHT22;68671;50.084;8.794;2023-04-16T13:14:20;17.30;99.90
9847;DHT22;68671;50.084;8.794;2023-04-16T13:16:47;17.40;99.90
9847;DHT22;68671;50.084;8.794;2023-04-16T13:19:14;17.50;99.90
9847;DHT22;68671;50.084;8.794;2023-04-16T13:21:43;17.60;99.90
9847;DHT22;68671;50.084;8.794;2023-04-16T13:24:13;17.60;99.90
9847;DHT22;68671;50.084;8.794;2023-04-16T13:26:40;17.70;99.90
9847;DHT22;68671;50.084;8.794;2023-04-16T13:29:09;17.80;99.90
9847;DHT22;68671;50.084;8.794;2023-04-16T13:31:37;17.90;99.90
9847;DHT22;68671;50.084;8.794;2023-04-16T13:34:04;17.90;99.90
9847;DHT22;68671;50.084;8.794;2023-04-16T13:36:31;18.00;99.90
9847;DHT22;68671;50.084;8.794;2023-04-16T13:38:58;18.10;99.90
9847;DHT22;68671;50.084;8.794;2023-04-16T13:41:25;18.10;99.90
9847;DHT22;68671;50.084;8.794;2023-04-16T13:43:53;18.20;99.90
9847;DHT22;68671;50.084;8.794;2023-04-16T13:46:21;18.20;99.90
9847;DHT22;68671;50.084;8.794;2023-04-16T13:48:51;18.30;99.90
9847;DHT22;68671;50.084;8.794;2023-04-16T13:51:18;18.30;99.90
9847;DHT22;68671;50.084;8.794;2023-04-16T13:53:46;18.30;99.90
9847;DHT22;68671;50.084;8.794;2023-04-16T13:56:13;18.20;99.90
9847;DHT22;68671;50.084;8.794;2023-04-16T13:58:40;18.10;99.90
9847;DHT22;68671;50.084;8.794;2023-04-16T14:01:08;18.00;99.90
9847;DHT22;68671;50.084;8.794;2023-04-16T14:03:36;18.00;99.90
9847;DHT22;68671;50.084;8.794;2023-04-16T14:06:05;17.90;99.90
9847;DHT22;68671;50.084;8.794;2023-04-16T14:08:32;17.90;99.90
9847;DHT22;68671;50.084;8.794;2023-04-16T14:10:59;17.90;99.90
9847;DHT22;68671;50.084;8.794;2023-04-16T14:13:27;17.90;99.90
9847;DHT22;68671;50.084;8.794;2023-04-16T14:15:54;17.80;99.90
9847;DHT22;68671;50.084;8.794;2023-04-16T14:18:21;17.70;99.90
9847;DHT22;68671;50.084;8.794;2023-04-16T14:20:50;17.70;99.90
9847;DHT22;68671;50.084;8.794;2023-04-16T14:23:16;17.80;99.90
9847;DHT22;68671;50.084;8.794;2023-04-16T14:25:43;17.80;99.90
9847;DHT22;68671;50.084;8.794;2023-04-16T14:28:10;17.80;99.90
9847;DHT22;68671;50.084;8.794;2023-04-16T14:30:37;17.80;99.90
9847;DHT22;68671;50.084;8.794;2023-04-16T14:33:05;17.80;99.90
9847;DHT22;68671;50.084;8.794;2023-04-16T14:35:32;17.80;99.90
9847;DHT22;68671;50.084;8.794;2023-04-16T14:38:01;17.80;99.90
9847;DHT22;68671;50.084;8.794;2023-04-16T14:40:28;17.80;99.90
9847;DHT22;68671;50.084;8.794;2023-04-16T14:42:55;17.70;99.90
9847;DHT22;68671;50.084;8.794;2023-04-16T14:45:22;17.70;99.90
9847;DHT22;68671;50.084;8.794;2023-04-16T14:47:50;17.60;99.90
9847;DHT22;68671;50.084;8.794;2023-04-16T14:50:18;17.60;99.90
9847;DHT22;68671;50.084;8.794;2023-04-16T14:52:45;17.70;99.90
9847;DHT22;68671;50.084;8.794;2023-04-16T14:55:13;17.70;99.90
9847;DHT22;68671;50.084;8.794;2023-04-16T14:57:42;17.80;99.90
9847;DHT22;68671;50.084;8.794;2023-04-16T15:00:10;17.80;99.90
9847;DHT22;68671;50.084;8.794;2023-04-16T15:02:38;17.80;99.90
9847;DHT22;68671;50.084;8.794;2023-04-16T15:05:05;17.90;99.90
9847;DHT22;68671;50.084;8.794;2023-04-16T15:10:49;17.80;99.90
9847;DHT22;68671;50.084;8.794;2023-04-16T15:13:17;17.80;99.90
9847;DHT22;68671;50.084;8.794;2023-04-16T15:15:44;17.70;99.90
9847;DHT22;68671;50.084;8.794;2023-04-16T15:18:11;17.70;99.90
9847;DHT22;68671;50.084;8.794;2023-04-16T15:20:38;17.70;99.90
9847;DHT22;68671;50.084;8.794;2023-04-16T15:23:05;17.60;99.90
9847;DHT22;68671;50.084;8.794;2023-04-16T15:25:32;17.60;99.90
9847;DHT22;68671;50.084;8.794;2023-04-16T15:28:00;17.70;99.90
9847;DHT22;68671;50.084;8.794;2023-04-16T15:30:28;17.80;99.90
9847;DHT22;68671;50.084;8.794;2023-04-16T15:32:55;17.80;99.90
9847;DHT22;68671;50.084;8.794;2023-04-16T15:35:22;17.80;99.90
9847;DHT22;68671;50.084;8.794;2023-04-16T15:37:49;17.80;99.90
9847;DHT22;68671;50.084;8.794;2023-04-16T15:40:17;17.70;99.90
9847;DHT22;68671;50.084;8.794;2023-04-16T15:42:45;17.70;99.90
9847;DHT22;68671;50.084;8.794;2023-04-16T15:45:13;17.60;99.90
9847;DHT22;68671;50.084;8.794;2023-04-16T15:47:40;17.70;99.90
9847;DHT22;68671;50.084;8.794;2023-04-16T15:50:09;17.70;99.90
9847;DHT22;68671;50.084;8.794;2023-04-16T15:52:36;17.60;99.50